createdAt,value
2023-11-18T00:00:57.000Z,102334.91
2023-11-18T00:03:23.604Z,102334.56
2023-11-18T00:05:50.176Z,102329.50
2023-11-18T00:08:19.192Z,102332.56
2023-11-18T00:10:46.047Z,102325.78
2023-11-18T00:13:12.891Z,102331.72
2023-11-18T00:15:39.552Z,102323.09
2023-11-18T00:18:06.468Z,102330.69
2023-11-18T00:20:37.030Z,102336.63
2023-11-18T00:23:06.057Z,102330.53
2023-11-18T00:25:35.077Z,102329.69
2023-11-18T00:28:01.818Z,102333.19
2023-11-18T00:30:29.423Z,102332.31
2023-11-18T00:32:56.289Z,102330.13
2023-11-18T00:35:22.935Z,102329.28
2023-11-18T00:37:49.480Z,102331.31
2023-11-18T00:40:19.083Z,102325.59
2023-11-18T00:42:46.450Z,102326.59
2023-11-18T00:45:15.630Z,102326.91
2023-11-18T00:47:45.117Z,102329.81
2023-11-18T00:50:11.797Z,102332.50
2023-11-18T00:52:39.905Z,102313.72
2023-11-18T00:55:08.420Z,102325.06
2023-11-18T00:57:35.044Z,102331.31
2023-11-18T01:00:01.897Z,102317.28
2023-11-18T01:02:28.949Z,102324.06
2023-11-18T01:04:56.614Z,102331.13
2023-11-18T01:07:23.293Z,102321.69
2023-11-18T01:09:50.188Z,102329.94
2023-11-18T01:12:16.836Z,102332.84
2023-11-18T01:14:43.489Z,102328.09
2023-11-18T01:17:14.920Z,102323.53
2023-11-18T01:19:41.885Z,102324.72
2023-11-18T01:22:09.664Z,102323.88
2023-11-18T01:24:36.450Z,102318.63
2023-11-18T01:27:03.459Z,102310.34
2023-11-18T01:29:30.057Z,102316.59
2023-11-18T01:31:57.413Z,102322.81
2023-11-18T01:34:24.244Z,102321.97
2023-11-18T01:36:51.290Z,102328.34
2023-11-18T01:39:21.122Z,102321.88
2023-11-18T01:41:47.740Z,102325.56
2023-11-18T01:44:14.938Z,102317.13
2023-11-18T01:46:46.726Z,102316.41
2023-11-18T01:49:15.630Z,102318.09
2023-11-18T01:51:52.510Z,102322.06
2023-11-18T01:54:20.673Z,102314.78
2023-11-18T01:56:49.156Z,102317.97
2023-11-18T01:59:19.928Z,102315.91
2023-11-18T02:01:52.780Z,102323.66
2023-11-18T02:04:21.546Z,102321.44
2023-11-18T02:06:52.015Z,102317.19
2023-11-18T02:09:20.360Z,102328.63
2023-11-18T02:11:55.617Z,102322.72
2023-11-18T02:14:27.496Z,102310.34
2023-11-18T02:16:57.228Z,102314.53
2023-11-18T02:19:26.084Z,102320.13
2023-11-18T02:21:55.397Z,102306.41
2023-11-18T02:24:31.665Z,102306.41
2023-11-18T02:26:59.298Z,102313.28
2023-11-18T02:29:27.412Z,102319.66
2023-11-18T02:32:02.738Z,102325.38
2023-11-18T02:34:33.033Z,102323.31
2023-11-18T02:37:01.744Z,102324.34
2023-11-18T02:39:34.544Z,102317.84
2023-11-18T02:42:03.465Z,102316.16
2023-11-18T02:44:33.259Z,102316.09
2023-11-18T02:47:00.932Z,102309.00
2023-11-18T02:49:28.908Z,102309.84
2023-11-18T02:51:56.160Z,102303.09
2023-11-18T02:54:23.313Z,102300.00
2023-11-18T02:56:50.200Z,102294.91
2023-11-18T02:59:17.656Z,102292.53
2023-11-18T03:01:44.574Z,102296.09
2023-11-18T03:04:11.825Z,102295.38
2023-11-18T03:06:38.490Z,102286.91
2023-11-18T03:09:08.439Z,102274.56
2023-11-18T03:11:35.383Z,102272.19
2023-11-18T03:14:02.315Z,102276.75
2023-11-18T03:16:29.085Z,102270.94
2023-11-18T03:18:56.166Z,102277.66
2023-11-18T03:21:22.799Z,102275.66
2023-11-18T03:23:49.362Z,102288.03
2023-11-18T03:26:15.939Z,102289.69
2023-11-18T03:28:42.631Z,102286.97
2023-11-18T03:31:10.351Z,102281.44
2023-11-18T03:33:37.035Z,102290.13
2023-11-18T03:36:04.338Z,102281.91
2023-11-18T03:38:30.923Z,102290.97
2023-11-18T03:40:59.317Z,102279.28
2023-11-18T03:43:25.944Z,102289.06
2023-11-18T03:45:57.790Z,102278.59
2023-11-18T03:48:24.812Z,102281.59
2023-11-18T03:50:51.730Z,102272.97
2023-11-18T03:53:18.286Z,102271.97
2023-11-18T03:55:44.888Z,102263.34
2023-11-18T03:58:11.509Z,102249.03
2023-11-18T04:00:38.066Z,102246.63
2023-11-18T04:03:07.766Z,102232.78
2023-11-18T04:05:35.713Z,102221.06
2023-11-18T04:08:02.861Z,102214.31
2023-11-18T04:10:29.570Z,102218.38
2023-11-18T04:12:56.835Z,102218.22
2023-11-18T04:15:23.498Z,102211.84
2023-11-18T04:17:50.124Z,102211.75
2023-11-18T04:20:17.389Z,102202.97
2023-11-18T04:22:45.010Z,102198.44
2023-11-18T04:25:13.063Z,102202.44
2023-11-18T04:27:41.161Z,102199.75
2023-11-18T04:30:13.942Z,102203.28
2023-11-18T04:32:43.578Z,102199.00
2023-11-18T04:35:11.177Z,102206.31
2023-11-18T04:37:37.948Z,102201.09
2023-11-18T04:40:05.034Z,102202.06
2023-11-18T04:42:31.639Z,102207.41
2023-11-18T04:44:58.836Z,102195.59
2023-11-18T04:47:26.492Z,102189.22
2023-11-18T04:49:53.381Z,102189.41
2023-11-18T04:52:20.059Z,102181.63
2023-11-18T04:54:49.183Z,102175.22
2023-11-18T04:57:15.948Z,102180.91
2023-11-18T04:59:45.236Z,102179.06
2023-11-18T05:02:11.844Z,102182.91
2023-11-18T05:04:38.521Z,102174.53
2023-11-18T05:07:05.504Z,102180.38
2023-11-18T05:09:32.535Z,102185.63
2023-11-18T05:12:00.045Z,102183.06
2023-11-18T05:14:27.604Z,102177.53
2023-11-18T05:16:54.820Z,102162.53
2023-11-18T05:19:21.682Z,102169.59
2023-11-18T05:21:50.732Z,102169.59
2023-11-18T05:24:17.520Z,102169.47
2023-11-18T05:26:44.113Z,102156.44
2023-11-18T05:29:11.237Z,102158.44
2023-11-18T05:31:38.495Z,102165.84
2023-11-18T05:34:05.924Z,102166.16
2023-11-18T05:36:38.534Z,102164.13
2023-11-18T05:39:10.196Z,102153.69
2023-11-18T05:41:37.626Z,102151.16
2023-11-18T05:44:04.552Z,102159.91
2023-11-18T05:46:31.533Z,102158.50
2023-11-18T05:48:58.337Z,102172.16
2023-11-18T05:51:26.778Z,102175.13
2023-11-18T05:53:54.024Z,102168.59
2023-11-18T05:56:23.863Z,102156.00
2023-11-18T05:58:51.255Z,102154.47
2023-11-18T06:01:18.668Z,102164.38
2023-11-18T06:03:46.937Z,102143.81
2023-11-18T06:06:15.163Z,102143.81
2023-11-18T06:08:44.796Z,102146.81
2023-11-18T06:11:15.401Z,102140.59
2023-11-18T06:13:50.207Z,102152.38
2023-11-18T06:16:25.516Z,102143.59
2023-11-18T06:18:54.814Z,102140.06
2023-11-18T06:21:28.080Z,102137.38
2023-11-18T06:23:56.345Z,102136.22
2023-11-18T06:26:23.226Z,102140.75
2023-11-18T06:28:52.625Z,102140.59
2023-11-18T06:31:19.951Z,102145.97
2023-11-18T06:33:47.296Z,102133.53
2023-11-18T06:36:23.042Z,102138.91
2023-11-18T06:38:51.391Z,102126.31
2023-11-18T06:41:21.670Z,102132.50
2023-11-18T06:43:57.966Z,102125.28
2023-11-18T06:46:26.248Z,102129.81
2023-11-18T06:48:55.472Z,102125.59
2023-11-18T06:51:25.836Z,102134.81
2023-11-18T06:53:53.030Z,102134.69
2023-11-18T06:56:19.543Z,102139.53
2023-11-18T06:58:46.085Z,102144.75
2023-11-18T07:01:16.577Z,102147.44
2023-11-18T07:03:43.955Z,102155.13
2023-11-18T07:06:11.174Z,102166.44
2023-11-18T07:08:38.297Z,102168.59
2023-11-18T07:11:05.212Z,102171.97
2023-11-18T07:13:32.140Z,102175.66
2023-11-18T07:15:58.767Z,102161.34
2023-11-18T07:18:25.389Z,102165.88
2023-11-18T07:20:53.384Z,102160.19
2023-11-18T07:23:20.796Z,102160.38
2023-11-18T07:25:47.397Z,102152.75
2023-11-18T07:28:16.157Z,102149.19
2023-11-18T07:30:43.836Z,102153.59
2023-11-18T07:33:10.413Z,102143.97
2023-11-18T07:35:37.986Z,102148.50
2023-11-18T07:38:04.581Z,102138.72
2023-11-18T07:40:31.142Z,102152.06
2023-11-18T07:42:58.082Z,102153.59
2023-11-18T07:45:24.765Z,102143.81
2023-11-18T07:47:52.221Z,102146.50
2023-11-18T07:50:21.012Z,102157.13
2023-11-18T07:52:51.894Z,102157.13
2023-11-18T07:55:19.548Z,102159.00
2023-11-18T07:57:46.211Z,102160.25
2023-11-18T08:00:16.275Z,102151.34
2023-11-18T08:02:43.117Z,102150.22
2023-11-18T08:05:14.406Z,102150.22
2023-11-18T08:07:41.379Z,102154.03
2023-11-18T08:10:13.835Z,102137.78
2023-11-18T08:12:44.380Z,102133.38
2023-11-18T08:15:10.949Z,102142.59
2023-11-18T08:17:37.624Z,102141.16
2023-11-18T08:20:16.899Z,102142.56
2023-11-18T08:22:47.336Z,102132.38
2023-11-18T08:25:15.876Z,102130.38
2023-11-18T08:27:42.707Z,102113.22
2023-11-18T08:30:13.884Z,102111.16
2023-11-18T08:32:41.556Z,102100.28
2023-11-18T08:35:08.934Z,102093.19
2023-11-18T08:37:38.965Z,102089.03
2023-11-18T08:40:16.264Z,102086.81
2023-11-18T08:42:51.045Z,102081.13
2023-11-18T08:45:30.366Z,102075.34
2023-11-18T08:47:58.224Z,102062.81
2023-11-18T08:50:26.245Z,102063.53
2023-11-18T08:52:59.400Z,102053.44
2023-11-18T08:55:40.996Z,102043.84
2023-11-18T08:58:16.900Z,102035.53
2023-11-18T09:00:47.132Z,102040.91
2023-11-18T09:03:18.839Z,102031.31
2023-11-18T09:05:57.876Z,102023.63
2023-11-18T09:08:30.810Z,102024.47
2023-11-18T09:10:58.235Z,102018.75
2023-11-18T09:13:32.673Z,102018.41
2023-11-18T09:16:05.283Z,102024.63
2023-11-18T09:18:34.560Z,102029.72
2023-11-18T09:21:02.626Z,102040.28
2023-11-18T09:23:30.924Z,102045.97
2023-11-18T09:25:57.519Z,102037.47
2023-11-18T09:28:31.466Z,102032.41
2023-11-18T09:30:58.917Z,102027.53
2023-11-18T09:33:27.300Z,102019.16
2023-11-18T09:35:59.536Z,102019.47
2023-11-18T09:38:33.828Z,102027.03
2023-11-18T09:41:03.912Z,102032.09
2023-11-18T09:43:34.040Z,102020.47
2023-11-18T09:46:15.311Z,102013.63
2023-11-18T09:48:50.984Z,102014.00
2023-11-18T09:51:25.226Z,101993.72
2023-11-18T09:53:54.178Z,101982.81
2023-11-18T09:56:38.988Z,101983.50
2023-11-18T09:59:45.799Z,101975.69
2023-11-18T10:02:13.458Z,101976.06
2023-11-18T10:04:40.721Z,101983.19
2023-11-18T10:07:12.295Z,101985.81
2023-11-18T10:09:39.785Z,101985.97
2023-11-18T10:12:09.655Z,101976.59
2023-11-18T10:14:37.377Z,101983.19
2023-11-18T10:17:08.415Z,101990.66
2023-11-18T10:19:50.661Z,101978.38
2023-11-18T10:22:33.597Z,101969.44
2023-11-18T10:25:02.633Z,101955.09
2023-11-18T10:27:29.734Z,101966.28
2023-11-18T10:29:57.873Z,101958.38
2023-11-18T10:32:28.558Z,101934.72
2023-11-18T10:34:57.245Z,101933.25
2023-11-18T10:37:24.638Z,101930.56
2023-11-18T10:39:53.933Z,101924.78
2023-11-18T10:42:20.620Z,101932.03
2023-11-18T10:44:59.319Z,101933.09
2023-11-18T10:47:30.159Z,101941.16
2023-11-18T10:49:57.395Z,101941.94
2023-11-18T10:52:26.953Z,101940.25
2023-11-18T10:54:57.446Z,101933.19
2023-11-18T10:57:25.146Z,101923.56
2023-11-18T11:00:14.496Z,101904.13
2023-11-18T11:02:45.447Z,101905.91
2023-11-18T11:05:20.982Z,101890.53
2023-11-18T11:07:50.054Z,101899.22
2023-11-18T11:10:17.614Z,101888.09
2023-11-18T11:12:54.787Z,101884.09
2023-11-18T11:15:30.065Z,101887.69
2023-11-18T11:18:11.009Z,101887.00
2023-11-18T11:20:46.727Z,101883.47
2023-11-18T11:23:28.010Z,101868.84
2023-11-18T11:26:10.282Z,101867.97
2023-11-18T11:28:59.061Z,101879.41
2023-11-18T11:31:33.642Z,101864.28
2023-11-18T11:34:07.877Z,101852.06
2023-11-18T11:36:49.710Z,101839.50
2023-11-18T11:39:21.017Z,101854.38
2023-11-18T11:41:52.582Z,101855.56
2023-11-18T11:44:21.472Z,101851.56
2023-11-18T11:46:54.388Z,101852.50
2023-11-18T11:49:23.249Z,101840.47
2023-11-18T11:51:55.434Z,101837.13
2023-11-18T11:54:30.346Z,101831.13
2023-11-18T11:57:01.934Z,101825.88
2023-11-18T11:59:47.862Z,101830.97
2023-11-18T12:02:17.623Z,101824.59
2023-11-18T12:04:53.639Z,101819.19
2023-11-18T12:07:21.714Z,101812.81
2023-11-18T12:09:48.763Z,101807.09
2023-11-18T12:12:22.809Z,101807.09
2023-11-18T12:19:37.335Z,101781.19
2023-11-18T12:22:30.940Z,101787.63
2023-11-18T12:25:00.304Z,101777.66
2023-11-18T12:27:52.448Z,101778.22
2023-11-18T12:30:26.905Z,101771.47
2023-11-18T12:33:10.016Z,101762.34
2023-11-18T12:36:14.739Z,101752.03
2023-11-18T12:38:59.251Z,101729.44
2023-11-18T12:41:39.556Z,101734.00
2023-11-18T12:44:27.504Z,101724.13
2023-11-18T12:46:56.605Z,101711.97
2023-11-18T12:49:25.251Z,101712.72
2023-11-18T12:51:53.841Z,101708.19
2023-11-18T12:54:24.956Z,101709.31
2023-11-18T12:56:55.318Z,101718.16
2023-11-18T12:59:22.669Z,101722.00
2023-11-18T13:01:58.735Z,101724.88
2023-11-18T13:04:28.596Z,101721.94
2023-11-18T13:06:56.393Z,101720.56
2023-11-18T13:09:27.356Z,101715.66
2023-11-18T13:12:01.343Z,101691.78
2023-11-18T13:14:36.963Z,101687.72
2023-11-18T13:17:07.061Z,101684.53
2023-11-18T13:19:35.579Z,101686.88
2023-11-18T13:22:09.022Z,101691.13
2023-11-18T13:24:46.136Z,101686.22
2023-11-18T13:27:20.383Z,101680.91
2023-11-18T13:29:52.414Z,101676.69
2023-11-18T13:32:24.248Z,101671.13
2023-11-18T13:34:52.696Z,101663.63
2023-11-18T13:37:23.253Z,101652.16
2023-11-18T13:39:56.881Z,101646.84
2023-11-18T13:42:25.109Z,101625.72
2023-11-18T13:44:53.988Z,101614.34
2023-11-18T13:47:21.316Z,101603.06
2023-11-18T13:49:51.785Z,101593.94
2023-11-18T13:52:20.062Z,101576.69
2023-11-18T13:54:48.448Z,101559.63
2023-11-18T13:57:15.140Z,101563.81
2023-11-18T13:59:44.421Z,101544.63
2023-11-18T14:02:11.442Z,101544.31
2023-11-18T14:04:38.488Z,101533.06
2023-11-18T14:07:06.436Z,101521.56
2023-11-18T14:09:37.249Z,101515.59
2023-11-18T14:12:07.452Z,101504.19
2023-11-18T14:14:34.464Z,101482.19
2023-11-18T14:17:02.248Z,101467.94
2023-11-18T14:19:30.086Z,101462.56
2023-11-18T14:21:57.283Z,101437.13
2023-11-18T14:24:28.805Z,101436.59
2023-11-18T14:26:56.118Z,101428.69
2023-11-18T14:29:24.982Z,101410.66
2023-11-18T14:31:53.659Z,101409.13
2023-11-18T14:34:20.270Z,101401.13
2023-11-18T14:36:47.102Z,101391.00
2023-11-18T14:39:18.948Z,101398.38
2023-11-18T14:41:46.891Z,101386.41
2023-11-18T14:44:13.841Z,101387.75
2023-11-18T14:46:42.246Z,101376.06
2023-11-18T14:49:11.394Z,101379.97
2023-11-18T14:51:38.445Z,101377.09
2023-11-18T14:54:06.995Z,101365.09
2023-11-18T14:56:36.098Z,101357.81
2023-11-18T14:59:02.895Z,101337.56
2023-11-18T15:01:30.349Z,101330.66
2023-11-18T15:03:57.517Z,101346.94
2023-11-18T15:06:28.501Z,101337.31
2023-11-18T15:08:55.332Z,101345.72
2023-11-18T15:11:23.061Z,101336.63
2023-11-18T15:13:51.018Z,101331.69
2023-11-18T15:16:20.043Z,101323.59
2023-11-18T15:18:48.677Z,101317.38
2023-11-18T15:21:16.352Z,101313.41
2023-11-18T15:23:43.528Z,101302.81
2023-11-18T15:26:11.058Z,101302.78
2023-11-18T15:28:38.120Z,101294.19
2023-11-18T15:31:05.455Z,101293.47
2023-11-18T15:33:32.900Z,101272.56
2023-11-18T15:36:00.151Z,101258.44
2023-11-18T15:38:27.291Z,101250.34
2023-11-18T15:40:54.635Z,101232.03
2023-11-18T15:43:22.814Z,101215.88
2023-11-18T15:45:49.655Z,101221.25
2023-11-18T15:48:16.320Z,101208.53
2023-11-18T15:50:42.995Z,101205.00
2023-11-18T15:53:09.968Z,101209.34
2023-11-18T15:55:39.378Z,101197.03
2023-11-18T15:58:06.069Z,101181.56
2023-11-18T16:00:33.127Z,101172.44
2023-11-18T16:03:02.845Z,101177.47
2023-11-18T16:05:35.675Z,101180.00
2023-11-18T16:08:04.387Z,101176.84
2023-11-18T16:10:31.469Z,101189.50
2023-11-18T16:12:59.674Z,101175.84
2023-11-18T16:15:28.108Z,101158.81
2023-11-18T16:17:56.335Z,101151.03
2023-11-18T16:20:25.203Z,101152.38
2023-11-18T16:22:53.644Z,101157.16
2023-11-18T16:25:23.884Z,101149.63
2023-11-18T16:27:54.669Z,101130.59
2023-11-18T16:30:25.875Z,101115.59
2023-11-18T16:32:53.381Z,101113.34
2023-11-18T16:35:21.230Z,101094.44
2023-11-18T16:37:48.856Z,101090.00
2023-11-18T16:40:16.785Z,101113.19
2023-11-18T16:42:47.245Z,101101.97
2023-11-18T16:45:14.857Z,101099.44
2023-11-18T16:47:42.757Z,101101.13
2023-11-18T16:50:11.641Z,101085.59
2023-11-18T16:52:41.580Z,101083.75
2023-11-18T16:55:12.122Z,101077.72
2023-11-18T16:57:38.994Z,101057.38
2023-11-18T17:00:25.618Z,101055.34
2023-11-18T17:02:59.888Z,101055.34
2023-11-18T17:05:32.648Z,101057.28
2023-11-18T17:08:00.978Z,101056.25
2023-11-18T17:10:28.312Z,101054.09
2023-11-18T17:12:55.435Z,101039.81
2023-11-18T17:15:22.226Z,101036.09
2023-11-18T17:18:16.732Z,101038.97
2023-11-18T17:20:43.284Z,101028.88
2023-11-18T17:23:09.967Z,101032.84
2023-11-18T17:25:36.508Z,101029.50
2023-11-18T17:28:05.676Z,101029.31
2023-11-18T17:30:38.033Z,101042.31
2023-11-18T17:33:04.902Z,101021.44
2023-11-18T17:35:31.512Z,101009.34
2023-11-18T17:37:58.215Z,101016.03
2023-11-18T17:40:24.828Z,101011.38
2023-11-18T17:42:54.550Z,100998.78
2023-11-18T17:45:21.666Z,100990.88
2023-11-18T17:47:48.351Z,100970.53
2023-11-18T17:50:16.477Z,100974.06
2023-11-18T17:52:47.628Z,100965.16
2023-11-18T17:55:14.508Z,100965.16
2023-11-18T17:57:45.036Z,100968.03
2023-11-18T18:00:13.927Z,100948.72
2023-11-18T18:02:41.442Z,100956.34
2023-11-18T18:05:09.213Z,100954.88
2023-11-18T18:07:36.064Z,100954.22
2023-11-18T18:10:02.619Z,100954.03
2023-11-18T18:12:29.381Z,100950.97
2023-11-18T18:14:57.028Z,100942.34
2023-11-18T18:17:23.850Z,100929.63
2023-11-18T18:19:51.252Z,100923.94
2023-11-18T18:22:18.145Z,100919.75
2023-11-18T18:24:44.844Z,100913.38
2023-11-18T18:27:12.387Z,100912.53
2023-11-18T18:29:39.087Z,100912.34
2023-11-18T18:32:06.462Z,100923.78
2023-11-18T18:34:33.070Z,100913.00
2023-11-18T18:36:59.972Z,100898.53
2023-11-18T18:39:26.632Z,100898.69
2023-11-18T18:41:53.189Z,100899.44
2023-11-18T18:44:19.861Z,100882.66
2023-11-18T18:46:46.509Z,100875.59
2023-11-18T18:49:13.166Z,100867.22
2023-11-18T18:51:39.940Z,100871.56
2023-11-18T18:54:06.525Z,100869.63
2023-11-18T18:56:33.124Z,100874.00
2023-11-18T18:58:59.780Z,100865.81
2023-11-18T19:01:27.721Z,100864.16
2023-11-18T19:03:54.525Z,100860.16
2023-11-18T19:06:21.267Z,100860.38
2023-11-18T19:08:47.897Z,100866.94
2023-11-18T19:11:14.489Z,100867.78
2023-11-18T19:13:42.611Z,100866.66
2023-11-18T19:16:10.885Z,100860.63
2023-11-18T19:18:38.367Z,100856.16
2023-11-18T19:21:05.450Z,100847.28
2023-11-18T19:23:32.058Z,100841.16
2023-11-18T19:25:58.719Z,100820.66
2023-11-18T19:28:25.380Z,100831.56
2023-11-18T19:30:51.993Z,100829.19
2023-11-18T19:33:18.571Z,100820.16
2023-11-18T19:35:45.197Z,100820.75
2023-11-18T19:38:11.867Z,100800.22
2023-11-18T19:40:38.406Z,100804.66
2023-11-18T19:43:06.979Z,100803.56
2023-11-18T19:45:34.425Z,100793.16
2023-11-18T19:48:01.605Z,100800.97
2023-11-18T19:50:28.621Z,100805.97
2023-11-18T19:52:55.229Z,100787.78
2023-11-18T19:55:22.031Z,100776.84
2023-11-18T19:57:48.724Z,100767.91
2023-11-18T20:00:19.325Z,100772.09
2023-11-18T20:02:46.634Z,100766.53
2023-11-18T20:05:13.973Z,100767.28
2023-11-18T20:07:40.904Z,100766.63
2023-11-18T20:10:09.757Z,100757.53
2023-11-18T20:12:36.654Z,100747.59
2023-11-18T20:15:03.606Z,100743.91
2023-11-18T20:17:33.322Z,100729.78
2023-11-18T20:20:00.630Z,100739.72
2023-11-18T20:22:27.225Z,100737.84
2023-11-18T20:24:53.747Z,100738.06
2023-11-18T20:27:20.688Z,100734.03
2023-11-18T20:29:47.303Z,100742.09
2023-11-18T20:32:14.037Z,100744.78
2023-11-18T20:34:40.639Z,100740.44
2023-11-18T20:37:07.200Z,100743.22
2023-11-18T20:39:34.842Z,100728.34
2023-11-18T20:42:01.558Z,100730.66
2023-11-18T20:44:28.965Z,100718.50
2023-11-18T20:47:04.164Z,100734.84
2023-11-18T20:49:30.766Z,100725.22
2023-11-18T20:51:58.502Z,100713.22
2023-11-18T20:54:25.115Z,100712.84
2023-11-18T20:56:51.687Z,100708.28
2023-11-18T20:59:19.654Z,100699.00
2023-11-18T21:01:47.317Z,100704.63
2023-11-18T21:04:13.996Z,100687.41
2023-11-18T21:06:40.775Z,100679.53
2023-11-18T21:09:07.648Z,100678.94
2023-11-18T21:11:34.286Z,100672.94
2023-11-18T21:14:00.897Z,100691.06
2023-11-18T21:16:27.537Z,100677.53
2023-11-18T21:18:54.145Z,100664.47
2023-11-18T21:21:20.755Z,100661.13
2023-11-18T21:23:49.053Z,100658.81
2023-11-18T21:26:15.750Z,100646.19
2023-11-18T21:28:42.317Z,100651.63
2023-11-18T21:31:09.080Z,100633.28
2023-11-18T21:33:38.660Z,100638.53
2023-11-18T21:36:05.760Z,100631.91
2023-11-18T21:38:32.348Z,100633.38
2023-11-18T21:40:58.908Z,100622.41
2023-11-18T21:43:25.481Z,100622.19
2023-11-18T21:45:52.780Z,100609.00
2023-11-18T21:48:22.142Z,100616.91
2023-11-18T21:50:49.814Z,100604.84
2023-11-18T21:53:16.403Z,100602.09
2023-11-18T21:55:43.678Z,100602.66
2023-11-18T21:58:10.260Z,100612.81
2023-11-18T22:00:45.090Z,100617.75
2023-11-18T22:03:13.868Z,100608.59
2023-11-18T22:05:40.566Z,100605.91
2023-11-18T22:08:08.786Z,100607.13
2023-11-18T22:10:35.535Z,100597.56
2023-11-18T22:13:02.123Z,100602.31
2023-11-18T22:15:28.646Z,100593.59
2023-11-18T22:17:55.225Z,100593.16
2023-11-18T22:20:25.984Z,100592.69
2023-11-18T22:22:52.840Z,100590.22
2023-11-18T22:25:19.813Z,100582.13
2023-11-18T22:27:48.424Z,100593.28
2023-11-18T22:30:17.210Z,100593.47
2023-11-18T22:32:44.095Z,100590.78
2023-11-18T22:35:10.846Z,100583.31
2023-11-18T22:37:37.419Z,100587.00
2023-11-18T22:40:10.085Z,100584.31
2023-11-18T22:42:38.981Z,100574.59
2023-11-18T22:45:06.116Z,100576.63
2023-11-18T22:47:32.734Z,100572.28
2023-11-18T22:50:01.016Z,100563.38
2023-11-18T22:52:27.935Z,100562.53
2023-11-18T22:54:54.582Z,100558.38
2023-11-18T22:57:21.071Z,100554.00
2023-11-18T22:59:47.697Z,100555.06
2023-11-18T23:02:17.461Z,100547.53
2023-11-18T23:04:46.499Z,100554.22
2023-11-18T23:07:15.698Z,100558.75
2023-11-18T23:09:42.688Z,100551.91
2023-11-18T23:12:10.608Z,100550.06
2023-11-18T23:14:38.039Z,100550.06
2023-11-18T23:19:41.640Z,100548.38
2023-11-18T23:22:14.456Z,100546.31
2023-11-18T23:24:40.999Z,100545.06
2023-11-18T23:27:08.239Z,100537.16
2023-11-18T23:29:34.857Z,100542.16
2023-11-18T23:32:01.474Z,100540.47
2023-11-18T23:34:28.100Z,100539.69
2023-11-18T23:36:54.760Z,100522.69
2023-11-18T23:39:29.486Z,100523.72
2023-11-18T23:41:56.829Z,100522.25
2023-11-18T23:44:25.387Z,100523.09
2023-11-18T23:46:53.291Z,100530.09
2023-11-18T23:49:20.207Z,100519.34
2023-11-18T23:51:47.340Z,100521.00
2023-11-18T23:54:14.121Z,100527.69
2023-11-18T23:56:40.849Z,100522.75
2023-11-18T23:59:08.302Z,100516.88
